createdAt,value
2023-04-29T00:00:59.331Z,99918.53
2023-04-29T00:02:22.813Z,99923.66
2023-04-29T00:03:44.573Z,99919.03
2023-04-29T00:05:07.000Z,99919.03
2023-04-29T00:06:29.381Z,99921.72
2023-04-29T00:07:51.274Z,99922.84
2023-04-29T00:09:14.188Z,99927.03
2023-04-29T00:10:37.806Z,99918.13
2023-04-29T00:12:00.689Z,99924.69
2023-04-29T00:13:23.586Z,99914.66
2023-04-29T00:14:45.423Z,99914.66
2023-04-29T00:16:10.256Z,99918.72
2023-04-29T00:17:34.464Z,99911.75
2023-04-29T00:18:56.432Z,99914.13
2023-04-29T00:20:19.577Z,99910.00
2023-04-29T00:21:42.414Z,99910.66
2023-04-29T00:23:04.502Z,99913.56
2023-04-29T00:24:27.316Z,99907.78
2023-04-29T00:25:49.206Z,99903.13
2023-04-29T00:27:12.164Z,99896.41
2023-04-29T00:28:35.144Z,99898.56
2023-04-29T00:29:57.389Z,99895.56
2023-04-29T00:31:20.227Z,99888.34
2023-04-29T00:32:44.622Z,99899.97
2023-04-29T00:34:07.488Z,99891.06
2023-04-29T00:35:30.622Z,99890.78
2023-04-29T00:36:53.423Z,99889.44
2023-04-29T00:38:15.519Z,99896.81
2023-04-29T00:39:38.500Z,99898.34
2023-04-29T00:41:01.438Z,99904.72
2023-04-29T00:42:24.743Z,99896.44
2023-04-29T00:43:48.594Z,99897.97
2023-04-29T00:45:11.588Z,99897.16
2023-04-29T00:46:34.872Z,99896.44
2023-04-29T00:47:58.389Z,99911.22
2023-04-29T00:49:21.708Z,99909.88
2023-04-29T00:50:44.635Z,99907.69
2023-04-29T00:52:08.192Z,99904.13
2023-04-29T00:53:31.624Z,99900.69
2023-04-29T00:54:53.488Z,99912.88
2023-04-29T00:56:17.188Z,99895.31
2023-04-29T00:57:39.330Z,99904.97
2023-04-29T00:59:03.655Z,99908.03
2023-04-29T01:00:26.826Z,99911.22
2023-04-29T01:01:48.798Z,99914.22
2023-04-29T01:03:13.927Z,99907.03
2023-04-29T01:04:37.026Z,99905.13
2023-04-29T01:06:10.064Z,99906.63
2023-04-29T01:07:42.872Z,99909.25
2023-04-29T01:09:21.720Z,99918.88
2023-04-29T01:10:49.923Z,99915.72
2023-04-29T01:12:20.736Z,99911.44
2023-04-29T01:13:47.080Z,99920.81
2023-04-29T01:15:18.293Z,99922.88
2023-04-29T01:16:43.813Z,99923.25
2023-04-29T01:18:12.040Z,99920.25
2023-04-29T01:19:45.592Z,99921.59
2023-04-29T01:21:09.239Z,99925.25
2023-04-29T01:22:31.105Z,99924.66
2023-04-29T01:23:57.160Z,99926.34
2023-04-29T01:25:20.091Z,99920.75
2023-04-29T01:26:46.046Z,99922.63
2023-04-29T01:28:15.725Z,99917.50
2023-04-29T01:29:44.130Z,99926.72
2023-04-29T01:31:09.673Z,99921.03
2023-04-29T01:32:41.847Z,99926.72
2023-04-29T01:34:10.280Z,99927.94
2023-04-29T01:35:47.559Z,99924.88
2023-04-29T01:37:17.412Z,99916.88
2023-04-29T01:38:45.725Z,99915.25
2023-04-29T01:40:17.235Z,99915.72
2023-04-29T01:41:44.779Z,99919.31
2023-04-29T01:43:11.828Z,99925.44
2023-04-29T01:44:35.945Z,99918.19
2023-04-29T01:45:59.321Z,99922.72
2023-04-29T01:47:22.620Z,99918.34
2023-04-29T01:48:46.333Z,99917.59
2023-04-29T01:50:10.034Z,99920.81
2023-04-29T01:51:34.128Z,99922.28
2023-04-29T01:52:55.976Z,99924.75
2023-04-29T01:54:18.912Z,99927.13
2023-04-29T01:55:43.795Z,99928.81
2023-04-29T01:57:05.713Z,99931.38
2023-04-29T01:58:29.481Z,99937.06
2023-04-29T01:59:51.637Z,99935.97
2023-04-29T02:01:15.251Z,99933.97
2023-04-29T02:02:37.408Z,99932.34
2023-04-29T02:04:00.675Z,99934.13
2023-04-29T02:05:23.620Z,99938.25
2023-04-29T02:06:46.555Z,99941.50
2023-04-29T02:08:08.523Z,99938.44
2023-04-29T02:09:31.375Z,99935.06
2023-04-29T02:10:56.929Z,99942.69
2023-04-29T02:12:19.768Z,99944.81
2023-04-29T02:13:42.618Z,99948.34
2023-04-29T02:15:06.790Z,99949.22
2023-04-29T02:16:29.632Z,99953.00
2023-04-29T02:17:51.856Z,99948.97
2023-04-29T02:19:14.675Z,99944.94
2023-04-29T02:20:36.590Z,99951.03
2023-04-29T02:21:59.404Z,99956.16
2023-04-29T02:23:22.372Z,99949.09
2023-04-29T02:24:45.233Z,99952.06
2023-04-29T02:26:09.743Z,99945.91
2023-04-29T02:27:32.514Z,99947.03
2023-04-29T02:28:57.188Z,99954.03
2023-04-29T02:30:20.021Z,99947.72
2023-04-29T02:31:42.851Z,99947.81
2023-04-29T02:33:06.341Z,99955.09
2023-04-29T02:34:32.050Z,99957.75
2023-04-29T02:35:54.956Z,99950.50
2023-04-29T02:37:16.807Z,99958.75
2023-04-29T02:38:39.608Z,99960.56
2023-04-29T02:40:03.595Z,99954.59
2023-04-29T02:41:27.776Z,99954.38
2023-04-29T02:42:49.624Z,99956.44
2023-04-29T02:44:12.541Z,99954.91
2023-04-29T02:45:35.364Z,99960.16
2023-04-29T02:46:58.505Z,99955.94
2023-04-29T02:48:21.353Z,99953.03
2023-04-29T02:49:43.250Z,99956.91
2023-04-29T02:51:06.638Z,99960.22
2023-04-29T02:52:29.448Z,99953.31
2023-04-29T02:53:52.273Z,99967.53
2023-04-29T02:55:15.130Z,99955.97
2023-04-29T02:56:39.437Z,99963.06
2023-04-29T02:58:02.299Z,99960.22
2023-04-29T02:59:25.196Z,99967.34
2023-04-29T03:00:47.060Z,99957.00
2023-04-29T03:02:09.912Z,99953.94
2023-04-29T03:03:32.864Z,99950.69
2023-04-29T03:04:54.832Z,99959.41
2023-04-29T03:06:17.938Z,99950.69
2023-04-29T03:07:39.808Z,99945.81
2023-04-29T03:09:02.669Z,99952.66
2023-04-29T03:10:25.466Z,99957.63
2023-04-29T03:11:49.572Z,99948.97
2023-04-29T03:13:11.514Z,99952.00
2023-04-29T03:14:34.303Z,99951.16
2023-04-29T03:15:58.643Z,99952.31
2023-04-29T03:17:21.466Z,99948.25
2023-04-29T03:18:45.145Z,99950.03
2023-04-29T03:20:08.284Z,99948.84
2023-04-29T03:21:31.149Z,99954.03
2023-04-29T03:22:53.916Z,99945.59
2023-04-29T03:24:16.810Z,99952.47
2023-04-29T03:25:38.672Z,99949.06
2023-04-29T03:27:02.761Z,99952.53
2023-04-29T03:28:25.567Z,99943.91
2023-04-29T03:29:49.424Z,99951.03
2023-04-29T03:31:12.744Z,99957.72
2023-04-29T03:32:34.673Z,99957.38
2023-04-29T03:33:57.473Z,99952.78
2023-04-29T03:35:20.395Z,99952.88
2023-04-29T03:36:43.223Z,99948.47
2023-04-29T03:38:05.308Z,99948.97
2023-04-29T03:39:32.223Z,99952.59
2023-04-29T03:40:54.180Z,99947.44
2023-04-29T03:42:18.618Z,99947.34
2023-04-29T03:43:43.998Z,99947.31
2023-04-29T03:45:07.007Z,99946.22
2023-04-29T03:46:29.944Z,99948.34
2023-04-29T03:47:53.471Z,99948.66
2023-04-29T03:49:16.323Z,99949.84
2023-04-29T03:50:38.238Z,99949.81
2023-04-29T03:52:01.193Z,99949.72
2023-04-29T03:53:24.531Z,99949.19
2023-04-29T03:54:47.434Z,99950.28
2023-04-29T03:56:10.203Z,99950.88
2023-04-29T03:57:34.302Z,99946.84
2023-04-29T03:58:57.101Z,99945.22
2023-04-29T04:00:19.013Z,99951.38
2023-04-29T04:01:42.438Z,99952.56
2023-04-29T04:03:05.643Z,99952.16
2023-04-29T04:04:28.060Z,99953.75
2023-04-29T04:05:51.306Z,99950.72
2023-04-29T04:07:13.150Z,99962.81
2023-04-29T04:08:36.020Z,99958.59
2023-04-29T04:09:57.871Z,99963.06
2023-04-29T04:11:20.674Z,99966.03
2023-04-29T04:12:44.411Z,99955.38
2023-04-29T04:14:07.508Z,99958.66
2023-04-29T04:15:29.320Z,99966.13
2023-04-29T04:16:52.122Z,99958.81
2023-04-29T04:18:13.997Z,99959.63
2023-04-29T04:19:36.947Z,99962.06
2023-04-29T04:20:58.809Z,99967.84
2023-04-29T04:22:21.584Z,99964.91
2023-04-29T04:23:44.348Z,99958.84
2023-04-29T04:25:07.569Z,99968.16
2023-04-29T04:26:30.525Z,99971.16
2023-04-29T04:27:54.621Z,99973.66
2023-04-29T04:29:16.755Z,99983.25
2023-04-29T04:30:39.511Z,99978.38
2023-04-29T04:32:01.383Z,99974.69
2023-04-29T04:33:24.259Z,99985.91
2023-04-29T04:34:46.136Z,99982.91
2023-04-29T04:36:09.164Z,99991.03
2023-04-29T04:37:31.991Z,99984.13
2023-04-29T04:38:53.885Z,99981.19
2023-04-29T04:40:17.060Z,99992.19
2023-04-29T04:41:38.938Z,99985.59
2023-04-29T04:43:03.101Z,99990.63
2023-04-29T04:44:24.993Z,99998.63
2023-04-29T04:45:48.129Z,99992.06
2023-04-29T04:47:11.550Z,99989.00
2023-04-29T04:48:34.385Z,99995.56
2023-04-29T04:49:57.261Z,99994.13
2023-04-29T04:51:19.057Z,99996.38
2023-04-29T04:52:42.657Z,99995.53
2023-04-29T04:54:05.467Z,100001.41
2023-04-29T04:55:28.299Z,100003.34
2023-04-29T04:56:52.120Z,100002.06
2023-04-29T04:58:16.457Z,99999.03
2023-04-29T04:59:39.274Z,100008.41
2023-04-29T05:01:02.168Z,100006.66
2023-04-29T05:02:25.359Z,100007.34
2023-04-29T05:03:48.345Z,100008.44
2023-04-29T05:05:11.292Z,100006.53
2023-04-29T05:06:34.344Z,100014.75
2023-04-29T05:07:56.161Z,100005.81
2023-04-29T05:09:19.411Z,100008.78
2023-04-29T05:10:42.368Z,100009.78
2023-04-29T05:12:04.475Z,100009.28
2023-04-29T05:13:28.632Z,100004.19
2023-04-29T05:14:52.975Z,100010.28
2023-04-29T05:16:17.344Z,100008.66
2023-04-29T05:17:40.918Z,100010.50
2023-04-29T05:19:03.776Z,100008.84
2023-04-29T05:20:26.759Z,100012.72
2023-04-29T05:21:49.575Z,100013.75
2023-04-29T05:23:11.405Z,100007.44
2023-04-29T05:24:34.256Z,100016.97
2023-04-29T05:25:57.075Z,100012.69
2023-04-29T05:27:20.265Z,100009.66
2023-04-29T05:28:44.378Z,100014.84
2023-04-29T05:30:07.313Z,100024.88
2023-04-29T05:31:30.137Z,100017.81
2023-04-29T05:32:53.157Z,100020.53
2023-04-29T05:34:17.193Z,100019.59
2023-04-29T05:35:40.086Z,100023.84
2023-04-29T05:37:02.892Z,100015.88
2023-04-29T05:38:29.245Z,100011.41
2023-04-29T05:39:52.240Z,100025.97
2023-04-29T05:41:15.191Z,100019.59
2023-04-29T05:42:37.438Z,100019.03
2023-04-29T05:44:01.588Z,100026.31
2023-04-29T05:45:23.384Z,100036.25
2023-04-29T05:46:46.470Z,100031.66
2023-04-29T05:48:09.308Z,100039.53
2023-04-29T05:49:32.279Z,100036.53
2023-04-29T05:50:55.031Z,100027.44
2023-04-29T05:52:16.888Z,100038.34
2023-04-29T05:53:40.620Z,100041.66
2023-04-29T05:55:02.551Z,100042.81
2023-04-29T05:56:25.852Z,100042.09
2023-04-29T05:57:47.700Z,100044.59
2023-04-29T05:59:12.056Z,100050.81
2023-04-29T06:00:34.383Z,100052.72
2023-04-29T06:01:57.397Z,100055.84
2023-04-29T06:03:20.400Z,100050.16
2023-04-29T06:04:43.482Z,100055.28
2023-04-29T06:06:05.507Z,100047.19
2023-04-29T06:07:28.719Z,100064.03
2023-04-29T06:08:51.601Z,100063.13
2023-04-29T06:10:15.250Z,100056.88
2023-04-29T06:11:37.291Z,100061.63
2023-04-29T06:13:00.217Z,100060.56
2023-04-29T06:14:23.624Z,100065.22
2023-04-29T06:15:46.552Z,100057.00
2023-04-29T06:17:09.426Z,100064.94
2023-04-29T06:18:32.209Z,100073.16
2023-04-29T06:19:55.298Z,100066.44
2023-04-29T06:21:17.190Z,100075.16
2023-04-29T06:22:39.993Z,100073.75
2023-04-29T06:24:03.069Z,100077.75
2023-04-29T06:25:25.920Z,100069.25
2023-04-29T06:26:48.792Z,100076.97
2023-04-29T06:28:10.690Z,100077.91
2023-04-29T06:29:34.890Z,100079.53
2023-04-29T06:30:57.758Z,100085.91
2023-04-29T06:32:20.790Z,100080.75
2023-04-29T06:33:43.614Z,100089.56
2023-04-29T06:35:07.376Z,100085.09
2023-04-29T06:36:29.264Z,100091.81
2023-04-29T06:37:52.766Z,100090.97
2023-04-29T06:39:14.622Z,100088.75
2023-04-29T06:40:37.494Z,100093.91
2023-04-29T06:42:00.264Z,100091.47
2023-04-29T06:43:22.068Z,100088.50
2023-04-29T06:44:46.332Z,100099.91
2023-04-29T06:46:09.332Z,100098.81
2023-04-29T06:47:33.019Z,100099.47
2023-04-29T06:48:55.899Z,100101.72
2023-04-29T06:50:19.045Z,100099.25
2023-04-29T06:51:42.829Z,100100.16
2023-04-29T06:53:05.882Z,100106.16
2023-04-29T06:54:28.602Z,100106.00
2023-04-29T06:55:52.137Z,100099.97
2023-04-29T06:57:14.981Z,100106.00
2023-04-29T06:58:38.421Z,100106.69
2023-04-29T07:00:03.793Z,100102.81
2023-04-29T07:01:26.784Z,100112.09
2023-04-29T07:02:49.686Z,100114.97
2023-04-29T07:04:13.049Z,100110.97
2023-04-29T07:05:35.854Z,100116.91
2023-04-29T07:06:59.513Z,100109.69
2023-04-29T07:08:23.185Z,100121.03
2023-04-29T07:09:46.078Z,100110.75
2023-04-29T07:11:08.874Z,100113.53
2023-04-29T07:12:31.683Z,100113.63
2023-04-29T07:13:54.608Z,100116.53
2023-04-29T07:15:19.075Z,100122.50
2023-04-29T07:16:42.135Z,100123.50
2023-04-29T07:18:05.269Z,100123.63
2023-04-29T07:19:28.174Z,100128.00
2023-04-29T07:20:52.771Z,100133.16
2023-04-29T07:22:15.553Z,100134.91
2023-04-29T07:23:38.365Z,100134.66
2023-04-29T07:25:01.429Z,100143.94
2023-04-29T07:26:24.239Z,100138.41
2023-04-29T07:27:46.163Z,100143.44
2023-04-29T07:29:08.932Z,100137.72
2023-04-29T07:30:33.213Z,100148.06
2023-04-29T07:31:56.031Z,100150.75
2023-04-29T07:33:17.995Z,100144.09
2023-04-29T07:34:41.095Z,100149.69
2023-04-29T07:36:04.659Z,100151.06
2023-04-29T07:37:27.656Z,100155.56
2023-04-29T07:38:50.490Z,100158.81
2023-04-29T07:40:14.506Z,100153.41
2023-04-29T07:41:37.285Z,100148.91
2023-04-29T07:43:04.692Z,100160.25
2023-04-29T07:44:27.486Z,100156.13
2023-04-29T07:45:51.600Z,100154.69
2023-04-29T07:47:14.469Z,100152.88
2023-04-29T07:48:39.240Z,100162.16
2023-04-29T07:50:02.755Z,100157.47
2023-04-29T07:51:25.526Z,100168.78
2023-04-29T07:52:48.288Z,100171.94
2023-04-29T07:54:11.082Z,100172.94
2023-04-29T07:55:33.839Z,100173.66
2023-04-29T07:56:57.910Z,100173.69
2023-04-29T07:58:20.652Z,100174.88
2023-04-29T07:59:43.433Z,100190.91
2023-04-29T08:01:08.652Z,100192.06
2023-04-29T08:02:30.822Z,100187.59
2023-04-29T08:03:53.948Z,100183.75
2023-04-29T08:05:17.500Z,100197.09
2023-04-29T08:06:41.725Z,100187.75
2023-04-29T08:08:04.748Z,100199.34
2023-04-29T08:09:27.568Z,100192.47
2023-04-29T08:10:49.394Z,100203.75
2023-04-29T08:12:12.169Z,100196.94
2023-04-29T08:13:35.006Z,100199.34
2023-04-29T08:14:57.817Z,100203.72
2023-04-29T08:16:24.466Z,100215.06
2023-04-29T08:17:47.410Z,100218.69
2023-04-29T08:19:10.258Z,100211.38
2023-04-29T08:20:32.161Z,100218.38
2023-04-29T08:21:54.992Z,100210.09
2023-04-29T08:23:16.813Z,100217.31
2023-04-29T08:24:39.614Z,100219.31
2023-04-29T08:26:03.447Z,100219.81
2023-04-29T08:27:27.028Z,100230.78
2023-04-29T08:28:49.922Z,100237.28
2023-04-29T08:30:13.818Z,100234.63
2023-04-29T08:31:38.024Z,100229.66
2023-04-29T08:32:59.939Z,100234.47
2023-04-29T08:34:22.821Z,100238.38
2023-04-29T08:35:45.600Z,100238.31
2023-04-29T08:37:08.469Z,100245.19
2023-04-29T08:38:32.010Z,100245.59
2023-04-29T08:39:54.873Z,100244.06
2023-04-29T08:41:17.708Z,100241.25
2023-04-29T08:42:39.827Z,100246.94
2023-04-29T08:44:02.729Z,100240.22
2023-04-29T08:45:26.430Z,100251.84
2023-04-29T08:46:51.076Z,100252.00
2023-04-29T08:48:14.605Z,100249.25
2023-04-29T08:49:38.393Z,100256.25
2023-04-29T08:51:02.438Z,100258.63
2023-04-29T08:52:24.454Z,100254.97
2023-04-29T08:53:47.240Z,100257.25
2023-04-29T08:55:10.485Z,100257.63
2023-04-29T08:56:34.054Z,100259.94
2023-04-29T08:57:58.415Z,100262.66
2023-04-29T08:59:22.183Z,100262.84
2023-04-29T09:00:46.273Z,100267.81
2023-04-29T09:02:17.101Z,100265.88
2023-04-29T09:03:46.013Z,100271.28
2023-04-29T09:05:11.203Z,100276.88
2023-04-29T09:06:34.239Z,100272.09
2023-04-29T09:07:59.684Z,100271.78
2023-04-29T09:09:22.031Z,100271.69
2023-04-29T09:10:45.040Z,100279.72
2023-04-29T09:12:07.803Z,100275.25
2023-04-29T09:13:32.117Z,100283.28
2023-04-29T09:14:55.426Z,100282.34
2023-04-29T09:16:19.157Z,100283.13
2023-04-29T09:17:45.435Z,100287.13
2023-04-29T09:19:08.386Z,100284.56
2023-04-29T09:20:31.640Z,100293.41
2023-04-29T09:21:56.709Z,100286.41
2023-04-29T09:23:19.484Z,100302.06
2023-04-29T09:24:43.662Z,100303.06
2023-04-29T09:26:05.614Z,100298.78
2023-04-29T09:27:29.287Z,100296.16
2023-04-29T09:29:08.747Z,100309.56
2023-04-29T09:30:31.667Z,100311.00
2023-04-29T09:31:54.726Z,100312.59
2023-04-29T09:33:17.938Z,100309.75
2023-04-29T09:34:41.310Z,100313.19
2023-04-29T09:36:04.331Z,100323.63
2023-04-29T09:37:28.798Z,100329.66
2023-04-29T09:38:54.001Z,100335.94
2023-04-29T09:40:30.439Z,100326.44
2023-04-29T09:42:02.640Z,100333.63
2023-04-29T09:43:26.222Z,100336.38
2023-04-29T09:44:49.224Z,100329.97
2023-04-29T09:46:12.955Z,100349.84
2023-04-29T09:47:36.363Z,100351.78
2023-04-29T09:48:59.702Z,100355.06
2023-04-29T09:50:22.498Z,100357.38
2023-04-29T09:51:54.536Z,100356.38
2023-04-29T09:53:31.390Z,100345.91
2023-04-29T09:55:06.117Z,100361.66
2023-04-29T09:56:31.183Z,100355.47
2023-04-29T09:57:54.162Z,100354.66
2023-04-29T09:59:17.936Z,100370.50
2023-04-29T10:00:41.452Z,100369.00
2023-04-29T10:02:18.019Z,100368.25
2023-04-29T10:03:43.003Z,100363.59
2023-04-29T10:05:10.684Z,100375.78
2023-04-29T10:06:33.647Z,100379.63
2023-04-29T10:07:57.444Z,100383.88
2023-04-29T10:09:21.421Z,100380.22
2023-04-29T10:10:46.391Z,100376.47
2023-04-29T10:12:09.440Z,100388.84
2023-04-29T10:13:35.474Z,100386.03
2023-04-29T10:15:04.486Z,100387.16
2023-04-29T10:16:30.897Z,100384.06
2023-04-29T10:17:57.673Z,100392.53
2023-04-29T10:19:27.667Z,100394.44
2023-04-29T10:20:52.069Z,100387.97
2023-04-29T10:22:23.233Z,100385.72
2023-04-29T10:23:46.667Z,100388.88
2023-04-29T10:25:11.475Z,100401.50
2023-04-29T10:26:37.150Z,100392.53
2023-04-29T10:28:01.678Z,100398.97
2023-04-29T10:29:28.459Z,100405.41
2023-04-29T10:30:52.292Z,100408.50
2023-04-29T10:32:16.368Z,100411.28
2023-04-29T10:33:44.502Z,100410.38
2023-04-29T10:35:09.953Z,100410.84
2023-04-29T10:36:34.881Z,100420.72
2023-04-29T10:38:02.232Z,100413.31
2023-04-29T10:39:30.613Z,100415.03
2023-04-29T10:40:54.896Z,100394.06
2023-04-29T10:42:23.193Z,100404.94
2023-04-29T10:43:46.922Z,100397.94
2023-04-29T10:45:20.642Z,100408.28
2023-04-29T10:46:43.542Z,100401.59
2023-04-29T10:48:13.249Z,100403.31
2023-04-29T10:49:36.103Z,100411.06
2023-04-29T10:51:06.352Z,100410.31
2023-04-29T10:52:29.523Z,100404.25
2023-04-29T10:54:00.377Z,100411.53
2023-04-29T10:55:24.779Z,100406.97
2023-04-29T10:56:50.478Z,100418.34
2023-04-29T10:58:37.580Z,100414.41
2023-04-29T11:00:00.330Z,100417.16
2023-04-29T11:01:42.408Z,100422.88
2023-04-29T11:03:07.290Z,100417.63
2023-04-29T11:04:32.665Z,100421.94
2023-04-29T11:06:08.883Z,100421.56
2023-04-29T11:07:33.112Z,100422.94
2023-04-29T11:09:02.630Z,100419.66
2023-04-29T11:10:37.341Z,100430.34
2023-04-29T11:12:03.267Z,100432.38
2023-04-29T11:13:26.768Z,100430.16
2023-04-29T11:14:51.922Z,100436.41
2023-04-29T11:16:14.407Z,100438.75
2023-04-29T11:17:38.656Z,100433.06
2023-04-29T11:19:05.340Z,100433.88
2023-04-29T11:20:28.208Z,100438.75
2023-04-29T11:22:05.405Z,100430.75
2023-04-29T11:23:29.593Z,100438.03
2023-04-29T11:24:55.281Z,100455.59
2023-04-29T11:26:21.516Z,100440.97
2023-04-29T11:27:46.501Z,100435.06
2023-04-29T11:29:10.550Z,100437.16
2023-04-29T11:30:33.936Z,100452.75
2023-04-29T11:32:00.126Z,100447.34
2023-04-29T11:33:23.186Z,100450.84
2023-04-29T11:34:46.039Z,100439.31
2023-04-29T11:36:10.657Z,100446.06
2023-04-29T11:37:34.320Z,100456.97
2023-04-29T11:38:58.445Z,100454.97
2023-04-29T11:40:21.417Z,100450.81
2023-04-29T11:41:44.214Z,100456.34
2023-04-29T11:43:07.141Z,100456.66
2023-04-29T11:44:30.190Z,100455.66
2023-04-29T11:45:54.187Z,100475.59
2023-04-29T11:47:17.063Z,100480.19
2023-04-29T11:48:47.403Z,100481.53
2023-04-29T11:50:11.111Z,100473.97
2023-04-29T11:51:34.116Z,100475.25
2023-04-29T11:52:58.844Z,100479.00
2023-04-29T11:54:23.310Z,100472.44
2023-04-29T11:55:46.598Z,100480.78
2023-04-29T11:57:11.923Z,100475.50
2023-04-29T11:58:34.862Z,100481.63
2023-04-29T11:59:58.661Z,100484.78
2023-04-29T12:01:21.536Z,100479.91
2023-04-29T12:02:46.181Z,100486.94
2023-04-29T12:04:09.765Z,100492.31
2023-04-29T12:05:33.386Z,100486.09
2023-04-29T12:06:58.459Z,100495.69
2023-04-29T12:08:21.481Z,100501.03
2023-04-29T12:09:46.332Z,100496.97
2023-04-29T12:11:09.364Z,100497.78
2023-04-29T12:12:36.329Z,100488.47
2023-04-29T12:14:02.533Z,100495.59
2023-04-29T12:15:27.148Z,100495.13
2023-04-29T12:16:50.041Z,100497.03
2023-04-29T12:18:13.650Z,100497.03
2023-04-29T12:19:38.832Z,100503.03
2023-04-29T12:21:02.191Z,100506.22
2023-04-29T12:22:32.319Z,100499.66
2023-04-29T12:23:55.572Z,100506.69
2023-04-29T12:25:21.092Z,100509.63
2023-04-29T12:26:46.289Z,100501.78
2023-04-29T12:28:13.376Z,100502.47
2023-04-29T12:29:37.159Z,100501.34
2023-04-29T12:31:00.179Z,100504.81
2023-04-29T12:32:25.210Z,100510.72
2023-04-29T12:33:48.071Z,100508.47
2023-04-29T12:35:17.058Z,100514.50
2023-04-29T12:36:43.323Z,100508.53
2023-04-29T12:38:06.341Z,100522.72
2023-04-29T12:39:29.729Z,100523.47
2023-04-29T12:40:54.158Z,100512.31
2023-04-29T12:42:16.888Z,100520.25
2023-04-29T12:43:39.726Z,100524.88
2023-04-29T12:45:02.623Z,100521.63
2023-04-29T12:46:26.071Z,100520.13
2023-04-29T12:47:48.914Z,100529.66
2023-04-29T12:49:12.470Z,100523.06
2023-04-29T12:50:37.495Z,100520.53
2023-04-29T12:52:00.391Z,100522.03
2023-04-29T12:53:23.778Z,100524.38
2023-04-29T12:54:46.839Z,100523.78
2023-04-29T12:56:13.268Z,100523.72
2023-04-29T12:57:37.910Z,100527.72
2023-04-29T12:59:06.570Z,100522.25
2023-04-29T13:00:29.408Z,100525.91
2023-04-29T13:01:51.408Z,100521.34
2023-04-29T13:03:15.130Z,100522.28
2023-04-29T13:04:38.127Z,100522.44
2023-04-29T13:06:02.696Z,100518.09
2023-04-29T13:07:25.525Z,100524.25
2023-04-29T13:08:48.451Z,100520.28
2023-04-29T13:10:13.429Z,100515.22
2023-04-29T13:11:37.540Z,100519.56
2023-04-29T13:13:00.828Z,100517.88
2023-04-29T13:14:23.705Z,100523.25
2023-04-29T13:15:46.608Z,100517.69
2023-04-29T13:17:10.869Z,100525.09
2023-04-29T13:18:34.949Z,100526.53
2023-04-29T13:19:59.497Z,100521.44
2023-04-29T13:21:22.424Z,100525.19
2023-04-29T13:22:45.282Z,100522.34
2023-04-29T13:24:08.407Z,100519.09
2023-04-29T13:25:31.233Z,100522.88
2023-04-29T13:26:54.514Z,100529.06
2023-04-29T13:28:17.359Z,100532.22
2023-04-29T13:29:40.219Z,100529.69
2023-04-29T13:31:03.056Z,100526.00
2023-04-29T13:32:25.929Z,100527.13
2023-04-29T13:33:48.778Z,100532.91
2023-04-29T13:35:11.960Z,100531.41
2023-04-29T13:36:34.923Z,100529.84
2023-04-29T13:37:57.909Z,100529.09
2023-04-29T13:39:23.008Z,100537.00
2023-04-29T13:40:47.142Z,100533.91
2023-04-29T13:42:15.323Z,100527.25
2023-04-29T13:43:40.578Z,100527.88
2023-04-29T13:45:03.954Z,100533.53
2023-04-29T13:46:28.928Z,100532.63
2023-04-29T13:48:07.197Z,100537.31
2023-04-29T13:49:58.552Z,100536.69
2023-04-29T13:52:01.488Z,100537.59
2023-04-29T13:53:24.687Z,100535.75
2023-04-29T14:00:55.053Z,100540.47
2023-04-29T14:02:24.370Z,100537.72
2023-04-29T14:03:49.141Z,100538.09
2023-04-29T14:05:12.559Z,100526.00
2023-04-29T14:06:35.488Z,100540.06
2023-04-29T14:07:58.291Z,100540.88
2023-04-29T14:09:21.482Z,100540.59
2023-04-29T14:10:44.322Z,100542.59
2023-04-29T14:12:07.493Z,100547.44
2023-04-29T14:13:31.617Z,100549.88
2023-04-29T14:14:54.922Z,100551.88
2023-04-29T14:16:17.975Z,100550.81
2023-04-29T14:17:40.936Z,100549.31
2023-04-29T14:19:04.228Z,100554.50
2023-04-29T14:20:27.166Z,100557.53
2023-04-29T14:21:49.951Z,100561.41
2023-04-29T14:23:12.715Z,100552.94
2023-04-29T14:24:35.500Z,100555.41
2023-04-29T14:26:16.616Z,100553.88
2023-04-29T14:27:41.135Z,100557.13
2023-04-29T14:29:05.417Z,100558.53
2023-04-29T14:30:28.292Z,100560.78
2023-04-29T14:31:51.189Z,100570.53
2023-04-29T14:33:14.075Z,100568.22
2023-04-29T14:34:36.987Z,100563.44
2023-04-29T14:36:00.898Z,100572.09
2023-04-29T14:37:23.720Z,100581.53
2023-04-29T14:38:46.575Z,100578.06
2023-04-29T14:40:10.323Z,100571.31
2023-04-29T14:41:33.100Z,100573.34
2023-04-29T14:42:56.133Z,100573.13
2023-04-29T14:44:20.774Z,100574.97
2023-04-29T14:45:44.092Z,100573.50
2023-04-29T14:47:07.169Z,100577.94
2023-04-29T14:48:30.098Z,100580.03
2023-04-29T14:49:52.961Z,100577.81
2023-04-29T14:51:15.936Z,100588.66
2023-04-29T14:52:38.760Z,100590.47
2023-04-29T14:54:01.598Z,100583.75
2023-04-29T14:55:23.482Z,100583.59
2023-04-29T14:56:46.276Z,100583.56
2023-04-29T14:58:10.279Z,100588.31
2023-04-29T14:59:34.426Z,100590.06
2023-04-29T15:00:56.630Z,100591.19
2023-04-29T15:02:19.619Z,100587.94
2023-04-29T15:03:44.864Z,100591.78
2023-04-29T15:05:08.627Z,100586.19
2023-04-29T15:06:32.413Z,100584.59
2023-04-29T15:07:55.432Z,100589.66
2023-04-29T15:09:18.319Z,100589.66
2023-04-29T15:10:41.085Z,100597.72
2023-04-29T15:12:04.550Z,100593.66
2023-04-29T15:13:27.665Z,100600.25
2023-04-29T15:14:53.530Z,100589.78
2023-04-29T15:16:15.490Z,100598.63
2023-04-29T15:17:38.531Z,100599.22
2023-04-29T15:19:01.897Z,100606.16
2023-04-29T15:20:23.798Z,100601.38
2023-04-29T15:21:46.740Z,100608.50
2023-04-29T15:23:09.644Z,100604.22
2023-04-29T15:24:32.466Z,100599.44
2023-04-29T15:25:55.623Z,100598.19
2023-04-29T15:27:18.504Z,100600.25
2023-04-29T15:28:43.162Z,100599.66
2023-04-29T15:30:08.615Z,100600.88
2023-04-29T15:31:31.628Z,100602.47
2023-04-29T15:32:55.389Z,100612.97
2023-04-29T15:34:18.427Z,100610.00
2023-04-29T15:35:41.375Z,100615.41
2023-04-29T15:37:04.173Z,100603.81
2023-04-29T15:38:26.961Z,100608.09
2023-04-29T15:39:50.207Z,100614.09
2023-04-29T15:41:13.041Z,100613.38
2023-04-29T15:42:35.978Z,100615.00
2023-04-29T15:43:59.046Z,100613.66
2023-04-29T15:45:23.201Z,100609.00
2023-04-29T15:46:46.043Z,100617.66
2023-04-29T15:48:08.930Z,100617.53
2023-04-29T15:49:31.752Z,100618.88
2023-04-29T15:50:54.537Z,100614.28
2023-04-29T15:52:16.408Z,100618.16
2023-04-29T15:53:39.195Z,100625.69
2023-04-29T15:55:02.076Z,100620.78
2023-04-29T15:56:25.664Z,100621.00
2023-04-29T15:57:48.559Z,100623.88
2023-04-29T15:59:11.373Z,100624.75
2023-04-29T16:00:35.592Z,100624.78
2023-04-29T16:01:58.389Z,100624.03
2023-04-29T16:03:21.275Z,100627.13
2023-04-29T16:04:44.135Z,100628.34
2023-04-29T16:06:06.945Z,100628.13
2023-04-29T16:07:29.741Z,100623.34
2023-04-29T16:08:52.548Z,100631.28
2023-04-29T16:10:15.514Z,100638.19
2023-04-29T16:11:37.549Z,100640.75
2023-04-29T16:13:00.729Z,100632.63
2023-04-29T16:14:23.598Z,100634.75